deformed-offering

Nearby METAR Reports

 

KSJC - San Jose, California, USA
Distance from station: NE 9mi, 14km
Updated: Sun, 18-Apr-2021 5:53am PDT
Clear
Clear
 Wind from calm
Wind: Calm
Temperature: 48°F , 9°C
Dew Point: 43°F , 6°C
Humidity: 82%
Barometer: 30.11 inHg , 1019.6 hPa
Clouds: Clear
Visibility: 10 miles , 16 km
2021/04/18 12:53 KSJC 181253Z 00000KT 10SM CLR 09/06 A3011 RMK AO2 SLP195 T00890056 $
KRHV - San Jose/Reid, California, USA
Distance from station: ENE 12mi, 19km
Updated: Sat, 17-Apr-2021 9:55pm PDT
NOT Current
Clear
Clear
 Wind from WNW
Wind: WNW 3 mph , 6 km/h
Temperature: 59°F , 15°C
Dew Point: 45°F , 7°C
Humidity: 59%
Barometer: 30.08 inHg , 1018.6 hPa
Clouds: Clear
Visibility: 10 miles , 16 km
2021/04/18 04:55 KRHV 180455Z 29003KT 10SM SKC 15/07 A3008 RMK LAST
 
KPAO - Palo Alto, California, USA
Distance from station: NNW 14mi, 23km
Updated: Sat, 17-Apr-2021 8:47pm PDT
NOT Current
Clear
Clear
 Wind from NW
Wind: NW 7 mph , 11 km/h
Temperature: 55°F , 13°C
Dew Point: 46°F , 8°C
Humidity: 72%
Barometer: 30.06 inHg , 1017.9 hPa
Clouds: Clear
Visibility: 10 miles , 16 km
2021/04/18 03:47 KPAO 180347Z 32006KT 10SM SKC 13/08 A3006 RMK LAST
KSQL - San Carlos Airpo, California, USA
Distance from station: NW 21mi, 34km
Updated: Sun, 18-Apr-2021 6:35am PDT
Clear
Clear
 Wind from calm
Wind: Calm
Temperature: 48°F , 9°C
Dew Point: 41°F , 5°C
Humidity: 76%
Barometer: 30.12 inHg , 1020 hPa
Clouds: Clear
Visibility: 10 miles , 16 km
2021/04/18 13:35 KSQL 181335Z AUTO 00000KT 10SM CLR 09/05 A3012 RMK AO2
 
KWVI - Watsonville, California, USA
Distance from station: SSE 27mi, 44km
Updated: Sun, 18-Apr-2021 5:53am PDT
Fog, Overcast
Fog, Overcast
 Wind from calm
Wind: Calm
Temperature: 46°F , 8°C
Dew Point: 46°F , 8°C
Humidity: 100%
Barometer: 30.11 inHg , 1019.6 hPa
Summary: Fog
Clouds: Overcast
Visibility: 1/4 mile , 0.4 km
Cloud details: Overcast 200 ft
2021/04/18 12:53 KWVI 181253Z AUTO 00000KT 1/4SM FG VV002 08/08 A3011 RMK AO2 SLP197 T00780078
KHWD - Hayward, California, USA
Distance from station: N 28mi, 44km
Updated: Sun, 18-Apr-2021 5:54am PDT
Clear
Clear
 Wind from ENE
Wind: ENE 5 mph , 7 km/h
Temperature: 46°F , 8°C
Wind Chill: 44°F , 7°C
Dew Point: 39°F , 4°C
Humidity: 76%
Barometer: 30.10 inHg , 1019.3 hPa
Clouds: Clear
Visibility: 10 miles , 16 km
2021/04/18 12:54 KHWD 181254Z AUTO 06004KT 10SM CLR 08/04 A3010 RMK AO2 SLP204 T00830044
 
KSFO - San Francisco, California, USA
Distance from station: NW 30mi, 49km
Updated: Sun, 18-Apr-2021 5:56am PDT
Clear
Clear
 Wind from WNW
Wind: WNW 8 mph , 13 km/h
Temperature: 48°F , 9°C
Wind Chill: 44°F , 7°C
Dew Point: 45°F , 7°C
Humidity: 87%
Barometer: 30.11 inHg , 1019.6 hPa
Clouds: Clear
Visibility: 10 miles , 16 km
2021/04/18 12:56 KSFO 181256Z 29007KT 10SM CLR 09/07 A3011 RMK AO2 SLP194 T00940072
KHAF - Half Moon Bay, California, USA
Distance from station: WNW 31mi, 50km
Updated: Sun, 18-Apr-2021 6:35am PDT
Fog, Overcast
Fog, Overcast
 Wind from NNE
Wind: NNE 3 mph , 6 km/h
Temperature: 46°F , 8°C
Dew Point: 45°F , 7°C
Humidity: 93%
Barometer: 30.13 inHg , 1020.3 hPa
Summary: Fog
Clouds: Overcast
Visibility: 1/2 mile , 0.8 km
Cloud details: Overcast 200 ft
2021/04/18 13:35 KHAF 181335Z AUTO 02003KT 1/2SM FG OVC002 08/07 A3013 RMK AO2
 
KLVK - Livermore, California, USA
Distance from station: NNE 31mi, 51km
Updated: Sun, 18-Apr-2021 5:53am PDT
Clear
Clear
 Wind from calm
Wind: Calm
Temperature: 46°F , 8°C
Dew Point: 36°F , 2°C
Humidity: 66%
Barometer: 30.10 inHg , 1019.3 hPa
Clouds: Clear
Visibility: 10 miles , 16 km
2021/04/18 12:53 KLVK 181253Z AUTO 00000KT 10SM CLR 08/02 A3010 RMK AO2 SLP190 T00830022
KOAK - Oakland, California, USA
Distance from station: NNW 33mi, 53km
Updated: Sun, 18-Apr-2021 5:53am PDT
Clear
Clear
 Wind from calm
Wind: Calm
Temperature: 46°F , 8°C
Dew Point: 45°F , 7°C
Humidity: 93%
Barometer: 30.12 inHg , 1020 hPa
Clouds: Clear
Visibility: 10 miles , 16 km
2021/04/18 12:53 KOAK 181253Z 00000KT 10SM CLR 08/07 A3012 RMK AO2 SLP197 T00830067
 
KCVH - Hollister Muni, California, USA
Distance from station: SE 42mi, 68km
Updated: Sun, 18-Apr-2021 6:35am PDT
Mist, Clear
Mist, Clear
 Wind from calm
Wind: Calm
Temperature: 43°F , 6°C
Dew Point: 39°F , 4°C
Humidity: 87%
Barometer: 30.13 inHg , 1020.3 hPa
Summary: Mist
Clouds: Clear
Visibility: 6 miles , 10 km
2021/04/18 13:35 KCVH 181335Z AUTO 00000KT 6SM BR CLR 06/04 A3013 RMK A01
KSNS - Salinas, California, USA
Distance from station: SSE 48mi, 77km
Updated: Sun, 18-Apr-2021 6:20am PDT
Fog, Overcast
Fog, Overcast
 Wind from calm
Wind: Calm
Temperature: 46°F , 8°C
Dew Point: 45°F , 7°C
Humidity: 93%
Barometer: 30.11 inHg , 1019.6 hPa
Summary: Fog
Clouds: Overcast
Visibility: 1/4 mile , 0.4 km
Cloud details: Overcast 200 ft
2021/04/18 13:20 KSNS 181320Z 00000KT 1/4SM R31/1600V1800FT FG VV002 08/07 A3011 RMK AO2 T00780072
 
KMRY - Monterey, California, USA
Distance from station: SSE 49mi, 78km
Updated: Sun, 18-Apr-2021 6:16am PDT
Fog, Overcast
Fog, Overcast
 Wind from ESE
Wind: ESE 7 mph , 11 km/h
Temperature: 46°F , 8°C
Wind Chill: 42°F , 6°C
Dew Point: 45°F , 7°C
Humidity: 93%
Barometer: 30.11 inHg , 1019.6 hPa
Summary: Fog
Clouds: Overcast
Visibility: 1/4 mile , 0.4 km
Cloud details: Overcast 100 ft
2021/04/18 13:16 KMRY 181316Z 12006KT 1/4SM R10R/1600V2600FT FG VV001 08/07 A3011 RMK AO2 T00780067
KCCR - Concord, California, USA
Distance from station: N 50mi, 81km
Updated: Sun, 18-Apr-2021 5:53am PDT
Clear
Clear
 Wind from calm
Wind: Calm
Temperature: 48°F , 9°C
Dew Point: 39°F , 4°C
Humidity: 71%
Barometer: 30.10 inHg , 1019.3 hPa
Clouds: Clear
Visibility: 10 miles , 16 km
2021/04/18 12:53 KCCR 181253Z AUTO 00000KT 10SM CLR 09/04 A3010 RMK AO2 SLP180 T00890039
deformed-offering